sensor_id;sensor_type;location;lat;lon;timestamp;temperature;humidity
37232;DHT22;23125;48.156;15.954;2022-09-09T00:02:28;17.80;58.90
37232;DHT22;23125;48.156;15.954;2022-09-09T00:04:58;17.70;58.90
37232;DHT22;23125;48.156;15.954;2022-09-09T00:10:37;17.70;59.00
37232;DHT22;23125;48.156;15.954;2022-09-09T00:13:16;17.70;59.00
37232;DHT22;23125;48.156;15.954;2022-09-09T00:15:55;17.60;59.10
37232;DHT22;23125;48.156;15.954;2022-09-09T00:21:14;17.50;59.00
37232;DHT22;23125;48.156;15.954;2022-09-09T00:23:54;17.50;59.10
37232;DHT22;23125;48.156;15.954;2022-09-09T00:26:45;17.50;59.20
37232;DHT22;23125;48.156;15.954;2022-09-09T00:31:44;17.40;59.70
37232;DHT22;23125;48.156;15.954;2022-09-09T00:34:21;17.40;59.20
37232;DHT22;23125;48.156;15.954;2022-09-09T00:36:50;17.40;59.20
37232;DHT22;23125;48.156;15.954;2022-09-09T00:39:42;17.30;59.10
37232;DHT22;23125;48.156;15.954;2022-09-09T00:42:25;17.30;59.10
37232;DHT22;23125;48.156;15.954;2022-09-09T00:47:53;17.20;59.30
37232;DHT22;23125;48.156;15.954;2022-09-09T00:50:29;17.20;59.40
37232;DHT22;23125;48.156;15.954;2022-09-09T00:58:10;17.10;59.40
37232;DHT22;23125;48.156;15.954;2022-09-09T01:00:43;17.10;60.00
37232;DHT22;23125;48.156;15.954;2022-09-09T01:06:18;17.00;59.40
37232;DHT22;23125;48.156;15.954;2022-09-09T01:19:54;16.90;59.70
37232;DHT22;23125;48.156;15.954;2022-09-09T01:22:44;16.90;59.70
37232;DHT22;23125;48.156;15.954;2022-09-09T01:28:08;16.80;59.70
37232;DHT22;23125;48.156;15.954;2022-09-09T01:30:38;16.80;59.80
37232;DHT22;23125;48.156;15.954;2022-09-09T01:33:04;16.80;59.90
37232;DHT22;23125;48.156;15.954;2022-09-09T01:35:48;16.80;59.90
37232;DHT22;23125;48.156;15.954;2022-09-09T01:38:23;16.70;60.00
37232;DHT22;23125;48.156;15.954;2022-09-09T01:40:50;16.70;60.00
37232;DHT22;23125;48.156;15.954;2022-09-09T01:43:21;16.70;60.00
37232;DHT22;23125;48.156;15.954;2022-09-09T01:45:50;16.70;60.10
37232;DHT22;23125;48.156;15.954;2022-09-09T01:48:18;16.70;60.10
37232;DHT22;23125;48.156;15.954;2022-09-09T01:50:44;16.70;60.10
37232;DHT22;23125;48.156;15.954;2022-09-09T01:53:11;16.70;60.10
37232;DHT22;23125;48.156;15.954;2022-09-09T01:55:40;16.60;60.10
37232;DHT22;23125;48.156;15.954;2022-09-09T02:00:45;16.60;60.10
37232;DHT22;23125;48.156;15.954;2022-09-09T02:03:27;16.60;60.20
37232;DHT22;23125;48.156;15.954;2022-09-09T02:08:56;16.60;60.20
37232;DHT22;23125;48.156;15.954;2022-09-09T02:11:25;16.60;60.30
37232;DHT22;23125;48.156;15.954;2022-09-09T02:13:56;16.50;60.40
37232;DHT22;23125;48.156;15.954;2022-09-09T02:19:28;16.50;60.50
37232;DHT22;23125;48.156;15.954;2022-09-09T02:21:59;16.50;60.50
37232;DHT22;23125;48.156;15.954;2022-09-09T02:24:28;16.40;60.50
37232;DHT22;23125;48.156;15.954;2022-09-09T02:26:55;16.40;60.50
37232;DHT22;23125;48.156;15.954;2022-09-09T02:29:27;16.40;60.50
37232;DHT22;23125;48.156;15.954;2022-09-09T02:31:57;16.40;60.50
37232;DHT22;23125;48.156;15.954;2022-09-09T02:34:25;16.40;60.60
37232;DHT22;23125;48.156;15.954;2022-09-09T02:36:54;16.40;60.60
37232;DHT22;23125;48.156;15.954;2022-09-09T02:39:20;16.30;60.60
37232;DHT22;23125;48.156;15.954;2022-09-09T02:41:46;16.30;60.50
37232;DHT22;23125;48.156;15.954;2022-09-09T02:44:17;16.30;60.60
37232;DHT22;23125;48.156;15.954;2022-09-09T02:52:18;16.30;60.80
37232;DHT22;23125;48.156;15.954;2022-09-09T02:54:46;16.30;60.80
37232;DHT22;23125;48.156;15.954;2022-09-09T02:57:21;16.20;60.70
37232;DHT22;23125;48.156;15.954;2022-09-09T02:59:49;16.20;60.80
37232;DHT22;23125;48.156;15.954;2022-09-09T03:02:15;16.20;60.80
37232;DHT22;23125;48.156;15.954;2022-09-09T03:04:41;16.20;60.90
37232;DHT22;23125;48.156;15.954;2022-09-09T03:07:10;16.20;60.90
37232;DHT22;23125;48.156;15.954;2022-09-09T03:09:36;16.20;60.90
37232;DHT22;23125;48.156;15.954;2022-09-09T03:12:02;16.20;60.90
37232;DHT22;23125;48.156;15.954;2022-09-09T03:14:30;16.20;61.00
37232;DHT22;23125;48.156;15.954;2022-09-09T03:16:56;16.10;60.90
37232;DHT22;23125;48.156;15.954;2022-09-09T03:19:26;16.10;60.90
37232;DHT22;23125;48.156;15.954;2022-09-09T03:21:54;16.10;61.00
37232;DHT22;23125;48.156;15.954;2022-09-09T03:24:20;16.10;61.40
37232;DHT22;23125;48.156;15.954;2022-09-09T03:26:46;16.10;61.10
37232;DHT22;23125;48.156;15.954;2022-09-09T03:29:13;16.10;61.10
37232;DHT22;23125;48.156;15.954;2022-09-09T03:31:39;16.10;61.10
37232;DHT22;23125;48.156;15.954;2022-09-09T03:34:06;16.10;61.10
37232;DHT22;23125;48.156;15.954;2022-09-09T03:36:32;16.10;61.10
37232;DHT22;23125;48.156;15.954;2022-09-09T03:38:58;16.10;61.10
37232;DHT22;23125;48.156;15.954;2022-09-09T03:41:25;16.00;61.00
37232;DHT22;23125;48.156;15.954;2022-09-09T03:43:52;16.00;61.10
37232;DHT22;23125;48.156;15.954;2022-09-09T03:46:20;16.00;61.20
37232;DHT22;23125;48.156;15.954;2022-09-09T03:48:46;16.00;61.20
37232;DHT22;23125;48.156;15.954;2022-09-09T03:51:12;16.00;61.30
37232;DHT22;23125;48.156;15.954;2022-09-09T03:53:38;16.00;61.40
37232;DHT22;23125;48.156;15.954;2022-09-09T03:56:05;16.00;61.40
37232;DHT22;23125;48.156;15.954;2022-09-09T03:58:34;15.90;61.40
37232;DHT22;23125;48.156;15.954;2022-09-09T04:01:03;15.90;61.40
37232;DHT22;23125;48.156;15.954;2022-09-09T04:03:29;15.90;61.40
37232;DHT22;23125;48.156;15.954;2022-09-09T04:05:57;15.80;61.30
37232;DHT22;23125;48.156;15.954;2022-09-09T04:08:24;15.90;61.40
37232;DHT22;23125;48.156;15.954;2022-09-09T04:10:51;15.90;61.40
37232;DHT22;23125;48.156;15.954;2022-09-09T04:13:18;15.80;61.40
37232;DHT22;23125;48.156;15.954;2022-09-09T04:15:56;15.80;61.50
37232;DHT22;23125;48.156;15.954;2022-09-09T04:18:23;15.80;61.50
37232;DHT22;23125;48.156;15.954;2022-09-09T04:20:50;15.80;61.50
37232;DHT22;23125;48.156;15.954;2022-09-09T04:23:17;15.80;61.50
37232;DHT22;23125;48.156;15.954;2022-09-09T04:25:48;15.80;61.60
37232;DHT22;23125;48.156;15.954;2022-09-09T04:28:15;15.70;61.50
37232;DHT22;23125;48.156;15.954;2022-09-09T04:30:42;15.70;61.60
37232;DHT22;23125;48.156;15.954;2022-09-09T04:33:09;15.70;61.70
37232;DHT22;23125;48.156;15.954;2022-09-09T04:35:36;15.70;61.80
37232;DHT22;23125;48.156;15.954;2022-09-09T04:38:02;15.70;61.90
37232;DHT22;23125;48.156;15.954;2022-09-09T04:40:29;15.70;61.90
37232;DHT22;23125;48.156;15.954;2022-09-09T04:42:58;15.60;61.90
37232;DHT22;23125;48.156;15.954;2022-09-09T04:45:25;15.70;62.00
37232;DHT22;23125;48.156;15.954;2022-09-09T04:47:52;15.70;62.10
37232;DHT22;23125;48.156;15.954;2022-09-09T04:50:19;15.60;62.10
37232;DHT22;23125;48.156;15.954;2022-09-09T04:52:45;15.70;62.20
37232;DHT22;23125;48.156;15.954;2022-09-09T04:55:10;15.60;62.20
37232;DHT22;23125;48.156;15.954;2022-09-09T04:57:41;15.70;62.30
37232;DHT22;23125;48.156;15.954;2022-09-09T05:00:08;15.70;62.40
37232;DHT22;23125;48.156;15.954;2022-09-09T05:02:37;15.70;62.40
37232;DHT22;23125;48.156;15.954;2022-09-09T05:05:04;15.70;62.40
37232;DHT22;23125;48.156;15.954;2022-09-09T05:07:31;15.70;62.40
37232;DHT22;23125;48.156;15.954;2022-09-09T05:09:57;15.70;62.50
37232;DHT22;23125;48.156;15.954;2022-09-09T05:12:23;15.70;62.60
37232;DHT22;23125;48.156;15.954;2022-09-09T05:14:52;15.70;62.60
37232;DHT22;23125;48.156;15.954;2022-09-09T05:17:17;15.70;62.70
37232;DHT22;23125;48.156;15.954;2022-09-09T05:19:44;15.70;62.80
37232;DHT22;23125;48.156;15.954;2022-09-09T05:22:10;15.80;63.00
37232;DHT22;23125;48.156;15.954;2022-09-09T05:24:38;15.80;63.10
37232;DHT22;23125;48.156;15.954;2022-09-09T05:27:04;15.80;63.20
37232;DHT22;23125;48.156;15.954;2022-09-09T05:29:32;15.90;63.30
37232;DHT22;23125;48.156;15.954;2022-09-09T05:32:01;15.90;63.40
37232;DHT22;23125;48.156;15.954;2022-09-09T05:34:26;15.90;63.40
37232;DHT22;23125;48.156;15.954;2022-09-09T05:36:52;16.00;63.60
37232;DHT22;23125;48.156;15.954;2022-09-09T05:39:19;16.00;63.80
37232;DHT22;23125;48.156;15.954;2022-09-09T05:41:44;16.10;64.00
37232;DHT22;23125;48.156;15.954;2022-09-09T05:44:10;16.10;64.10
37232;DHT22;23125;48.156;15.954;2022-09-09T05:46:36;16.20;64.10
37232;DHT22;23125;48.156;15.954;2022-09-09T05:49:02;16.20;64.00
37232;DHT22;23125;48.156;15.954;2022-09-09T05:51:29;16.30;64.10
37232;DHT22;23125;48.156;15.954;2022-09-09T05:53:58;16.30;64.10
37232;DHT22;23125;48.156;15.954;2022-09-09T05:56:28;16.30;63.80
37232;DHT22;23125;48.156;15.954;2022-09-09T05:58:55;16.40;64.00
37232;DHT22;23125;48.156;15.954;2022-09-09T06:01:23;16.40;64.20
37232;DHT22;23125;48.156;15.954;2022-09-09T06:03:50;16.60;65.80
37232;DHT22;23125;48.156;15.954;2022-09-09T06:06:22;16.80;67.30
37232;DHT22;23125;48.156;15.954;2022-09-09T06:08:54;17.10;69.00
37232;DHT22;23125;48.156;15.954;2022-09-09T06:11:28;17.70;71.30
37232;DHT22;23125;48.156;15.954;2022-09-09T06:13:57;18.30;71.60
37232;DHT22;23125;48.156;15.954;2022-09-09T06:16:25;18.80;70.20
37232;DHT22;23125;48.156;15.954;2022-09-09T06:18:53;19.20;69.60
37232;DHT22;23125;48.156;15.954;2022-09-09T06:21:27;19.50;69.70
37232;DHT22;23125;48.156;15.954;2022-09-09T06:23:55;20.10;70.20
37232;DHT22;23125;48.156;15.954;2022-09-09T06:26:23;20.50;69.00
37232;DHT22;23125;48.156;15.954;2022-09-09T06:28:54;20.90;68.50
37232;DHT22;23125;48.156;15.954;2022-09-09T06:31:21;21.20;66.30
37232;DHT22;23125;48.156;15.954;2022-09-09T06:33:51;21.40;66.60
37232;DHT22;23125;48.156;15.954;2022-09-09T06:36:19;21.70;65.80
37232;DHT22;23125;48.156;15.954;2022-09-09T06:38:46;21.90;64.80
37232;DHT22;23125;48.156;15.954;2022-09-09T06:41:14;22.10;64.00
37232;DHT22;23125;48.156;15.954;2022-09-09T06:43:41;22.20;63.00
37232;DHT22;23125;48.156;15.954;2022-09-09T06:46:08;22.30;62.60
37232;DHT22;23125;48.156;15.954;2022-09-09T06:48:35;22.40;62.30
37232;DHT22;23125;48.156;15.954;2022-09-09T06:53:28;22.70;62.10
37232;DHT22;23125;48.156;15.954;2022-09-09T06:55:54;22.90;62.50
37232;DHT22;23125;48.156;15.954;2022-09-09T06:58:21;23.10;63.30
37232;DHT22;23125;48.156;15.954;2022-09-09T07:00:49;23.50;63.20
37232;DHT22;23125;48.156;15.954;2022-09-09T07:03:15;23.90;63.20
37232;DHT22;23125;48.156;15.954;2022-09-09T07:05:41;24.50;64.80
37232;DHT22;23125;48.156;15.954;2022-09-09T07:08:07;25.00;63.70
37232;DHT22;23125;48.156;15.954;2022-09-09T07:10:32;25.60;63.40
37232;DHT22;23125;48.156;15.954;2022-09-09T07:12:59;26.20;61.80
37232;DHT22;23125;48.156;15.954;2022-09-09T07:15:27;26.60;60.40
37232;DHT22;23125;48.156;15.954;2022-09-09T07:17:52;27.30;60.50
37232;DHT22;23125;48.156;15.954;2022-09-09T07:20:19;27.80;59.10
37232;DHT22;23125;48.156;15.954;2022-09-09T07:22:45;28.40;58.20
37232;DHT22;23125;48.156;15.954;2022-09-09T07:25:11;28.90;57.30
37232;DHT22;23125;48.156;15.954;2022-09-09T07:27:37;29.50;56.40
37232;DHT22;23125;48.156;15.954;2022-09-09T07:30:04;29.80;53.80
37232;DHT22;23125;48.156;15.954;2022-09-09T07:32:30;29.90;53.00
37232;DHT22;23125;48.156;15.954;2022-09-09T07:34:56;30.40;53.60
37232;DHT22;23125;48.156;15.954;2022-09-09T07:37:24;30.80;53.30
37232;DHT22;23125;48.156;15.954;2022-09-09T07:39:50;31.40;52.70
37232;DHT22;23125;48.156;15.954;2022-09-09T07:42:17;31.90;51.70
37232;DHT22;23125;48.156;15.954;2022-09-09T07:44:43;32.40;50.70
37232;DHT22;23125;48.156;15.954;2022-09-09T07:47:08;32.80;49.80
37232;DHT22;23125;48.156;15.954;2022-09-09T07:49:34;33.20;48.50
37232;DHT22;23125;48.156;15.954;2022-09-09T07:52:00;33.60;48.20
37232;DHT22;23125;48.156;15.954;2022-09-09T07:54:26;34.20;47.50
37232;DHT22;23125;48.156;15.954;2022-09-09T07:56:52;34.40;45.90
37232;DHT22;23125;48.156;15.954;2022-09-09T07:59:18;34.70;45.80
37232;DHT22;23125;48.156;15.954;2022-09-09T08:01:52;35.00;44.60
37232;DHT22;23125;48.156;15.954;2022-09-09T08:04:21;35.20;43.70
37232;DHT22;23125;48.156;15.954;2022-09-09T08:06:55;35.20;42.70
37232;DHT22;23125;48.156;15.954;2022-09-09T08:09:23;35.10;41.70
37232;DHT22;23125;48.156;15.954;2022-09-09T08:11:55;34.80;41.10
37232;DHT22;23125;48.156;15.954;2022-09-09T08:14:22;34.70;41.40
37232;DHT22;23125;48.156;15.954;2022-09-09T08:16:49;34.60;41.50
37232;DHT22;23125;48.156;15.954;2022-09-09T08:19:16;34.60;41.00
37232;DHT22;23125;48.156;15.954;2022-09-09T08:21:44;34.50;41.10
37232;DHT22;23125;48.156;15.954;2022-09-09T08:24:11;34.50;41.20
37232;DHT22;23125;48.156;15.954;2022-09-09T08:26:43;34.60;40.90
37232;DHT22;23125;48.156;15.954;2022-09-09T08:29:10;34.70;41.40
37232;DHT22;23125;48.156;15.954;2022-09-09T08:31:42;35.10;41.60
37232;DHT22;23125;48.156;15.954;2022-09-09T08:34:09;35.50;41.30
37232;DHT22;23125;48.156;15.954;2022-09-09T08:36:42;35.90;40.60
37232;DHT22;23125;48.156;15.954;2022-09-09T08:39:10;36.10;39.70
37232;DHT22;23125;48.156;15.954;2022-09-09T08:47:25;36.70;37.40
37232;DHT22;23125;48.156;15.954;2022-09-09T08:55:47;36.70;35.10
37232;DHT22;23125;48.156;15.954;2022-09-09T08:58:19;36.50;35.20
37232;DHT22;23125;48.156;15.954;2022-09-09T09:01:01;36.40;35.10
37232;DHT22;23125;48.156;15.954;2022-09-09T09:09:11;36.70;34.10
37232;DHT22;23125;48.156;15.954;2022-09-09T09:11:46;36.60;33.70
37232;DHT22;23125;48.156;15.954;2022-09-09T09:14:23;36.60;33.50
37232;DHT22;23125;48.156;15.954;2022-09-09T09:17:00;36.40;32.90
37232;DHT22;23125;48.156;15.954;2022-09-09T09:19:30;36.20;32.80
37232;DHT22;23125;48.156;15.954;2022-09-09T09:22:13;36.00;33.10
37232;DHT22;23125;48.156;15.954;2022-09-09T09:30:19;36.00;33.80
37232;DHT22;23125;48.156;15.954;2022-09-09T09:33:02;36.10;33.30
37232;DHT22;23125;48.156;15.954;2022-09-09T09:35:31;36.10;32.80
37232;DHT22;23125;48.156;15.954;2022-09-09T09:37:57;36.00;32.40
37232;DHT22;23125;48.156;15.954;2022-09-09T09:40:26;36.00;32.60
37232;DHT22;23125;48.156;15.954;2022-09-09T09:43:01;36.00;33.10
37232;DHT22;23125;48.156;15.954;2022-09-09T09:45:33;36.00;32.30
37232;DHT22;23125;48.156;15.954;2022-09-09T09:48:10;35.90;31.60
37232;DHT22;23125;48.156;15.954;2022-09-09T09:50:48;35.70;31.50
37232;DHT22;23125;48.156;15.954;2022-09-09T09:53:26;35.60;31.60
37232;DHT22;23125;48.156;15.954;2022-09-09T09:56:01;35.50;31.10
37232;DHT22;23125;48.156;15.954;2022-09-09T09:58:30;35.40;31.10
37232;DHT22;23125;48.156;15.954;2022-09-09T10:01:00;35.20;30.90
37232;DHT22;23125;48.156;15.954;2022-09-09T10:03:33;35.00;30.70
37232;DHT22;23125;48.156;15.954;2022-09-09T10:06:06;34.90;31.10
37232;DHT22;23125;48.156;15.954;2022-09-09T10:08:43;35.00;31.70
37232;DHT22;23125;48.156;15.954;2022-09-09T10:13:53;35.10;31.60
37232;DHT22;23125;48.156;15.954;2022-09-09T10:19:41;35.10;31.40
37232;DHT22;23125;48.156;15.954;2022-09-09T10:22:26;35.10;31.10
37232;DHT22;23125;48.156;15.954;2022-09-09T10:30:53;35.20;30.50
37232;DHT22;23125;48.156;15.954;2022-09-09T10:38:41;34.90;30.40
37232;DHT22;23125;48.156;15.954;2022-09-09T10:42:02;34.70;30.80
37232;DHT22;23125;48.156;15.954;2022-09-09T10:49:50;34.30;30.40
37232;DHT22;23125;48.156;15.954;2022-09-09T10:55:14;34.10;30.80
37232;DHT22;23125;48.156;15.954;2022-09-09T10:57:46;33.90;30.80
37232;DHT22;23125;48.156;15.954;2022-09-09T11:00:24;33.90;31.70
37232;DHT22;23125;48.156;15.954;2022-09-09T11:03:02;33.90;31.80
37232;DHT22;23125;48.156;15.954;2022-09-09T11:05:30;33.90;32.00
37232;DHT22;23125;48.156;15.954;2022-09-09T11:08:28;33.80;31.70
37232;DHT22;23125;48.156;15.954;2022-09-09T11:11:09;33.80;31.70
37232;DHT22;23125;48.156;15.954;2022-09-09T11:16:28;33.70;31.80
37232;DHT22;23125;48.156;15.954;2022-09-09T11:19:30;33.80;32.10
37232;DHT22;23125;48.156;15.954;2022-09-09T11:22:02;33.80;32.20
37232;DHT22;23125;48.156;15.954;2022-09-09T11:24:32;33.70;31.60
37232;DHT22;23125;48.156;15.954;2022-09-09T11:27:00;33.70;31.60
37232;DHT22;23125;48.156;15.954;2022-09-09T11:29:42;33.60;31.60
37232;DHT22;23125;48.156;15.954;2022-09-09T11:32:31;33.60;31.90
37232;DHT22;23125;48.156;15.954;2022-09-09T11:35:47;33.50;31.90
37232;DHT22;23125;48.156;15.954;2022-09-09T11:38:19;33.40;31.80
37232;DHT22;23125;48.156;15.954;2022-09-09T11:40:48;33.30;32.10
37232;DHT22;23125;48.156;15.954;2022-09-09T11:43:32;33.30;32.10
37232;DHT22;23125;48.156;15.954;2022-09-09T11:46:02;33.30;32.40
37232;DHT22;23125;48.156;15.954;2022-09-09T11:48:40;33.30;32.40
37232;DHT22;23125;48.156;15.954;2022-09-09T11:51:11;33.30;32.60
37232;DHT22;23125;48.156;15.954;2022-09-09T11:53:52;33.20;32.30
37232;DHT22;23125;48.156;15.954;2022-09-09T11:56:43;33.10;32.40
37232;DHT22;23125;48.156;15.954;2022-09-09T11:59:24;33.10;33.00
37232;DHT22;23125;48.156;15.954;2022-09-09T12:04:42;32.90;33.10
37232;DHT22;23125;48.156;15.954;2022-09-09T12:09:48;32.70;33.30
37232;DHT22;23125;48.156;15.954;2022-09-09T12:12:26;32.70;33.70
37232;DHT22;23125;48.156;15.954;2022-09-09T12:17:46;32.50;34.10
37232;DHT22;23125;48.156;15.954;2022-09-09T12:20:17;32.50;34.10
37232;DHT22;23125;48.156;15.954;2022-09-09T12:33:52;32.00;35.50
37232;DHT22;23125;48.156;15.954;2022-09-09T12:36:29;31.90;35.50
37232;DHT22;23125;48.156;15.954;2022-09-09T12:39:19;31.80;35.90
37232;DHT22;23125;48.156;15.954;2022-09-09T12:41:52;31.70;35.80
37232;DHT22;23125;48.156;15.954;2022-09-09T12:44:23;31.60;36.00
37232;DHT22;23125;48.156;15.954;2022-09-09T12:46:51;31.50;36.10
37232;DHT22;23125;48.156;15.954;2022-09-09T12:49:34;31.40;36.30
37232;DHT22;23125;48.156;15.954;2022-09-09T12:52:04;31.20;36.50
37232;DHT22;23125;48.156;15.954;2022-09-09T12:54:34;31.10;36.90
37232;DHT22;23125;48.156;15.954;2022-09-09T12:57:00;31.00;37.30
37232;DHT22;23125;48.156;15.954;2022-09-09T12:59:38;30.80;36.80
37232;DHT22;23125;48.156;15.954;2022-09-09T13:02:25;30.70;37.50
37232;DHT22;23125;48.156;15.954;2022-09-09T13:04:52;30.50;37.90
37232;DHT22;23125;48.156;15.954;2022-09-09T13:07:20;30.30;38.30
37232;DHT22;23125;48.156;15.954;2022-09-09T13:09:48;30.10;38.60
37232;DHT22;23125;48.156;15.954;2022-09-09T13:12:18;30.00;39.00
37232;DHT22;23125;48.156;15.954;2022-09-09T13:14:55;29.70;39.20
37232;DHT22;23125;48.156;15.954;2022-09-09T13:17:25;29.60;39.80
37232;DHT22;23125;48.156;15.954;2022-09-09T13:19:55;29.30;40.50
37232;DHT22;23125;48.156;15.954;2022-09-09T13:39:53;25.80;42.10
37232;DHT22;23125;48.156;15.954;2022-09-09T13:42:28;25.30;43.80
37232;DHT22;23125;48.156;15.954;2022-09-09T13:44:56;25.00;45.00
37232;DHT22;23125;48.156;15.954;2022-09-09T13:47:32;24.90;45.80
37232;DHT22;23125;48.156;15.954;2022-09-09T13:50:19;24.70;46.30
37232;DHT22;23125;48.156;15.954;2022-09-09T13:52:54;24.50;46.80
37232;DHT22;23125;48.156;15.954;2022-09-09T13:55:22;24.40;47.50
37232;DHT22;23125;48.156;15.954;2022-09-09T13:57:59;24.30;48.10
37232;DHT22;23125;48.156;15.954;2022-09-09T14:00:27;24.20;48.10
37232;DHT22;23125;48.156;15.954;2022-09-09T14:02:54;24.10;48.60
37232;DHT22;23125;48.156;15.954;2022-09-09T14:05:22;24.00;49.20
37232;DHT22;23125;48.156;15.954;2022-09-09T14:07:49;23.90;49.70
37232;DHT22;23125;48.156;15.954;2022-09-09T14:10:16;23.80;49.80
37232;DHT22;23125;48.156;15.954;2022-09-09T14:12:42;23.70;50.40
37232;DHT22;23125;48.156;15.954;2022-09-09T14:15:10;23.60;50.80
37232;DHT22;23125;48.156;15.954;2022-09-09T14:17:35;23.60;51.10
37232;DHT22;23125;48.156;15.954;2022-09-09T14:20:05;23.50;51.30
37232;DHT22;23125;48.156;15.954;2022-09-09T14:22:34;23.50;51.60
37232;DHT22;23125;48.156;15.954;2022-09-09T14:25:00;23.50;51.80
37232;DHT22;23125;48.156;15.954;2022-09-09T14:27:26;23.40;52.20
37232;DHT22;23125;48.156;15.954;2022-09-09T14:29:52;23.40;52.60
37232;DHT22;23125;48.156;15.954;2022-09-09T14:32:19;23.40;52.90
37232;DHT22;23125;48.156;15.954;2022-09-09T14:34:45;23.30;53.20
37232;DHT22;23125;48.156;15.954;2022-09-09T14:37:11;23.30;53.50
37232;DHT22;23125;48.156;15.954;2022-09-09T14:39:37;23.30;53.70
37232;DHT22;23125;48.156;15.954;2022-09-09T14:42:03;23.30;53.90
37232;DHT22;23125;48.156;15.954;2022-09-09T14:44:30;23.30;53.90
37232;DHT22;23125;48.156;15.954;2022-09-09T14:46:56;23.20;54.10
37232;DHT22;23125;48.156;15.954;2022-09-09T14:49:21;23.30;54.50
37232;DHT22;23125;48.156;15.954;2022-09-09T14:51:47;23.30;54.70
37232;DHT22;23125;48.156;15.954;2022-09-09T14:54:13;23.20;55.00
37232;DHT22;23125;48.156;15.954;2022-09-09T14:56:40;23.20;55.20
37232;DHT22;23125;48.156;15.954;2022-09-09T14:59:06;23.30;55.40
37232;DHT22;23125;48.156;15.954;2022-09-09T15:01:32;23.20;55.50
37232;DHT22;23125;48.156;15.954;2022-09-09T15:04:02;23.30;55.70
37232;DHT22;23125;48.156;15.954;2022-09-09T15:06:30;23.30;55.90
37232;DHT22;23125;48.156;15.954;2022-09-09T15:08:59;23.30;55.80
37232;DHT22;23125;48.156;15.954;2022-09-09T15:11:30;23.30;56.00
37232;DHT22;23125;48.156;15.954;2022-09-09T15:13:58;23.20;56.80
37232;DHT22;23125;48.156;15.954;2022-09-09T15:16:27;23.20;56.30
37232;DHT22;23125;48.156;15.954;2022-09-09T15:18:54;23.20;56.50
37232;DHT22;23125;48.156;15.954;2022-09-09T15:21:22;23.20;56.40
37232;DHT22;23125;48.156;15.954;2022-09-09T15:23:49;23.20;56.70
37232;DHT22;23125;48.156;15.954;2022-09-09T15:26:16;23.20;57.00
37232;DHT22;23125;48.156;15.954;2022-09-09T15:28:44;23.20;57.00
37232;DHT22;23125;48.156;15.954;2022-09-09T15:31:22;23.20;57.20
37232;DHT22;23125;48.156;15.954;2022-09-09T15:33:50;23.20;57.40
37232;DHT22;23125;48.156;15.954;2022-09-09T15:36:20;23.20;57.50
37232;DHT22;23125;48.156;15.954;2022-09-09T15:38:48;23.20;57.80
37232;DHT22;23125;48.156;15.954;2022-09-09T15:41:14;23.30;58.00
37232;DHT22;23125;48.156;15.954;2022-09-09T15:43:48;23.30;58.10
37232;DHT22;23125;48.156;15.954;2022-09-09T15:48:50;23.30;58.10
37232;DHT22;23125;48.156;15.954;2022-09-09T15:51:16;23.30;58.20
37232;DHT22;23125;48.156;15.954;2022-09-09T15:53:43;23.30;58.40
37232;DHT22;23125;48.156;15.954;2022-09-09T15:56:09;23.30;58.40
37232;DHT22;23125;48.156;15.954;2022-09-09T15:58:35;23.30;58.50
37232;DHT22;23125;48.156;15.954;2022-09-09T16:01:07;23.30;58.50
37232;DHT22;23125;48.156;15.954;2022-09-09T16:03:37;23.30;58.60
37232;DHT22;23125;48.156;15.954;2022-09-09T16:06:05;23.30;58.60
37232;DHT22;23125;48.156;15.954;2022-09-09T16:08:35;23.30;58.70
37232;DHT22;23125;48.156;15.954;2022-09-09T16:11:10;23.30;58.80
37232;DHT22;23125;48.156;15.954;2022-09-09T16:13:39;23.30;58.80
37232;DHT22;23125;48.156;15.954;2022-09-09T16:16:06;23.30;58.80
37232;DHT22;23125;48.156;15.954;2022-09-09T16:18:37;23.30;58.90
37232;DHT22;23125;48.156;15.954;2022-09-09T16:21:05;23.30;59.50
37232;DHT22;23125;48.156;15.954;2022-09-09T16:23:32;23.30;58.90
37232;DHT22;23125;48.156;15.954;2022-09-09T16:25:59;23.30;58.90
37232;DHT22;23125;48.156;15.954;2022-09-09T16:28:25;23.20;58.80
37232;DHT22;23125;48.156;15.954;2022-09-09T16:30:51;23.20;58.90
37232;DHT22;23125;48.156;15.954;2022-09-09T16:33:17;23.10;58.90
37232;DHT22;23125;48.156;15.954;2022-09-09T16:35:43;23.10;59.00
37232;DHT22;23125;48.156;15.954;2022-09-09T16:38:09;23.10;59.20
37232;DHT22;23125;48.156;15.954;2022-09-09T16:40:38;23.10;59.30
37232;DHT22;23125;48.156;15.954;2022-09-09T16:43:07;23.00;59.30
37232;DHT22;23125;48.156;15.954;2022-09-09T16:45:42;23.00;59.30
37232;DHT22;23125;48.156;15.954;2022-09-09T16:48:08;23.00;59.30
37232;DHT22;23125;48.156;15.954;2022-09-09T16:50:35;22.90;59.20
37232;DHT22;23125;48.156;15.954;2022-09-09T16:53:00;22.90;59.50
37232;DHT22;23125;48.156;15.954;2022-09-09T16:55:31;22.90;59.50
37232;DHT22;23125;48.156;15.954;2022-09-09T16:57:58;22.90;59.60
37232;DHT22;23125;48.156;15.954;2022-09-09T17:00:23;22.80;59.60
37232;DHT22;23125;48.156;15.954;2022-09-09T17:02:49;22.80;59.80
37232;DHT22;23125;48.156;15.954;2022-09-09T17:05:15;22.70;59.80
37232;DHT22;23125;48.156;15.954;2022-09-09T17:07:41;22.70;59.60
37232;DHT22;23125;48.156;15.954;2022-09-09T17:10:09;22.70;59.60
37232;DHT22;23125;48.156;15.954;2022-09-09T17:12:35;22.60;59.70
37232;DHT22;23125;48.156;15.954;2022-09-09T17:15:01;22.60;59.80
37232;DHT22;23125;48.156;15.954;2022-09-09T17:17:28;22.60;60.00
37232;DHT22;23125;48.156;15.954;2022-09-09T17:19:54;22.50;60.10
37232;DHT22;23125;48.156;15.954;2022-09-09T17:22:20;22.50;60.10
37232;DHT22;23125;48.156;15.954;2022-09-09T17:24:47;22.50;60.30
37232;DHT22;23125;48.156;15.954;2022-09-09T17:27:13;22.40;60.30
37232;DHT22;23125;48.156;15.954;2022-09-09T17:29:39;22.40;60.40
37232;DHT22;23125;48.156;15.954;2022-09-09T17:32:05;22.40;60.40
37232;DHT22;23125;48.156;15.954;2022-09-09T17:34:34;22.40;60.40
37232;DHT22;23125;48.156;15.954;2022-09-09T17:37:00;22.40;60.50
37232;DHT22;23125;48.156;15.954;2022-09-09T17:39:25;22.30;60.60
37232;DHT22;23125;48.156;15.954;2022-09-09T17:41:51;22.30;60.60
37232;DHT22;23125;48.156;15.954;2022-09-09T17:44:19;22.20;60.60
37232;DHT22;23125;48.156;15.954;2022-09-09T17:46:45;22.20;60.70
37232;DHT22;23125;48.156;15.954;2022-09-09T17:49:13;22.20;60.70
37232;DHT22;23125;48.156;15.954;2022-09-09T17:51:40;22.20;60.80
37232;DHT22;23125;48.156;15.954;2022-09-09T17:54:10;22.20;60.80